KPRS

Presidio Lely International Airport

Presidio, Texas, USA
METAR KPRS 191455Z AUTO 00000KT 10SM CLR 03/M07 A3022 RMK AO2 T00261073
Observed Flight Rules
Jan-19 @ 14:55 UTC (35 minutes ago) Visual Flight Rules
Wind Visibility Clouds
Calm 10 miles
  • Clear skies
Temperatures Readings
Current 3°C / 37°F
Dewpoint -7°C / 19°F
Humidity 48%
Altimeter 30.22" Hg
Pressure 1023 hPa
Elevation 896
METAR KPRS 191455Z AUTO 00000KT 10SM CLR 03/M07 A3022 RMK AO2 T00261073
Observed Flight Rules
Jan-19 @ 14:55 UTC
(35 minutes ago)
VFR
Wind Visibility
Calm 10 miles
Clouds
  • Clear skies
Temperature Dewpoint
3°C / 37°F -7°C / 19°F
Humidity Altimeter Pressure
48% 30.22" Hg 1023 hPa